Weather at Barcelona International Airport

Public forecast

Using degrees Celsius for public forecast. Weather courtesy of forecast.io.

Current aviation weather report (METAR) for Barcelona International Airport

Retrieved 2021/05/11 19:30 UTC (17 minutes ago):

LEBL 111930Z 08005KT 040V100 9999 FEW025 15/10 Q1018 NOSIG

Aviation forecast (TAF) for Barcelona International Airport

Retrieved 2021/05/11 18:27 UTC (1 hour ago):

TAF LEBL 111700Z 1118/1218 09010KT 9999 FEW025 TX23/1213Z TN12/1206Z BECMG 1118/1121 VRB03KT BECMG 1121/1124 34006KT BECMG 1208/1211 22012KT